sensor_id;sensor_type;location;lat;lon;timestamp;temperature;humidity
53926;DHT22;39836;52.754;6.866;2024-03-29T00:01:29;8.00;76.50
53926;DHT22;39836;52.754;6.866;2024-03-29T00:04:23;8.00;76.50
53926;DHT22;39836;52.754;6.866;2024-03-29T00:14:37;8.00;76.50
53926;DHT22;39836;52.754;6.866;2024-03-29T00:25:12;7.90;76.60
53926;DHT22;39836;52.754;6.866;2024-03-29T00:32:53;7.90;76.40
53926;DHT22;39836;52.754;6.866;2024-03-29T00:36:21;8.00;76.50
53926;DHT22;39836;52.754;6.866;2024-03-29T00:38:47;7.90;76.60
53926;DHT22;39836;52.754;6.866;2024-03-29T00:41:22;7.80;76.70
53926;DHT22;39836;52.754;6.866;2024-03-29T00:43:57;7.80;76.80
53926;DHT22;39836;52.754;6.866;2024-03-29T00:46:32;7.80;76.70
53926;DHT22;39836;52.754;6.866;2024-03-29T00:49:07;7.80;76.70
53926;DHT22;39836;52.754;6.866;2024-03-29T00:59:56;7.80;76.60
53926;DHT22;39836;52.754;6.866;2024-03-29T01:03:21;7.80;76.60
53926;DHT22;39836;52.754;6.866;2024-03-29T01:06:47;7.80;76.60
53926;DHT22;39836;52.754;6.866;2024-03-29T01:10:10;7.80;76.50
53926;DHT22;39836;52.754;6.866;2024-03-29T01:12:41;7.80;76.70
53926;DHT22;39836;52.754;6.866;2024-03-29T01:15:14;7.80;76.60
53926;DHT22;39836;52.754;6.866;2024-03-29T01:17:55;7.80;76.60
53926;DHT22;39836;52.754;6.866;2024-03-29T01:20:30;7.80;76.70
53926;DHT22;39836;52.754;6.866;2024-03-29T01:22:59;7.80;76.60
53926;DHT22;39836;52.754;6.866;2024-03-29T01:25:50;7.80;76.70
53926;DHT22;39836;52.754;6.866;2024-03-29T01:28:24;7.80;76.60
53926;DHT22;39836;52.754;6.866;2024-03-29T01:31:10;7.80;76.70
53926;DHT22;39836;52.754;6.866;2024-03-29T01:34:01;7.80;76.70
53926;DHT22;39836;52.754;6.866;2024-03-29T01:43:35;7.80;76.80
53926;DHT22;39836;52.754;6.866;2024-03-29T01:46:13;7.80;76.70
53926;DHT22;39836;52.754;6.866;2024-03-29T01:48:42;7.90;76.50
53926;DHT22;39836;52.754;6.866;2024-03-29T01:51:20;7.90;76.50
53926;DHT22;39836;52.754;6.866;2024-03-29T01:53:53;7.90;76.40
53926;DHT22;39836;52.754;6.866;2024-03-29T01:59:05;7.90;76.50
53926;DHT22;39836;52.754;6.866;2024-03-29T02:01:35;7.90;76.50
53926;DHT22;39836;52.754;6.866;2024-03-29T02:04:09;7.90;76.50
53926;DHT22;39836;52.754;6.866;2024-03-29T02:06:37;7.90;76.50
53926;DHT22;39836;52.754;6.866;2024-03-29T02:09:09;7.90;76.50
53926;DHT22;39836;52.754;6.866;2024-03-29T02:11:53;7.90;76.50
53926;DHT22;39836;52.754;6.866;2024-03-29T02:14:55;7.80;76.40
53926;DHT22;39836;52.754;6.866;2024-03-29T02:17:27;7.90;76.40
53926;DHT22;39836;52.754;6.866;2024-03-29T02:19:56;7.80;76.50
53926;DHT22;39836;52.754;6.866;2024-03-29T02:22:25;7.80;76.40
53926;DHT22;39836;52.754;6.866;2024-03-29T02:24:54;7.80;76.50
53926;DHT22;39836;52.754;6.866;2024-03-29T02:27:21;7.80;76.40
53926;DHT22;39836;52.754;6.866;2024-03-29T02:29:51;7.80;76.40
53926;DHT22;39836;52.754;6.866;2024-03-29T02:32:47;7.80;76.50
53926;DHT22;39836;52.754;6.866;2024-03-29T02:35:34;7.80;76.50
53926;DHT22;39836;52.754;6.866;2024-03-29T02:38:09;7.80;76.50
53926;DHT22;39836;52.754;6.866;2024-03-29T02:40:50;7.80;76.50
53926;DHT22;39836;52.754;6.866;2024-03-29T02:43:37;7.80;76.40
53926;DHT22;39836;52.754;6.866;2024-03-29T02:46:11;7.80;76.50
53926;DHT22;39836;52.754;6.866;2024-03-29T02:48:39;7.80;76.50
53926;DHT22;39836;52.754;6.866;2024-03-29T02:54:23;7.70;76.50
53926;DHT22;39836;52.754;6.866;2024-03-29T02:56:54;7.70;76.50
53926;DHT22;39836;52.754;6.866;2024-03-29T02:59:28;7.70;76.50
53926;DHT22;39836;52.754;6.866;2024-03-29T03:01:57;7.60;76.50
53926;DHT22;39836;52.754;6.866;2024-03-29T03:04:28;7.70;76.50
53926;DHT22;39836;52.754;6.866;2024-03-29T03:07:10;7.70;76.20
53926;DHT22;39836;52.754;6.866;2024-03-29T03:10:03;7.80;76.20
53926;DHT22;39836;52.754;6.866;2024-03-29T03:12:48;7.80;76.00
53926;DHT22;39836;52.754;6.866;2024-03-29T03:15:13;7.80;76.20
53926;DHT22;39836;52.754;6.866;2024-03-29T03:17:43;7.80;76.10
53926;DHT22;39836;52.754;6.866;2024-03-29T03:20:12;7.80;76.20
53926;DHT22;39836;52.754;6.866;2024-03-29T03:22:43;7.80;76.00
53926;DHT22;39836;52.754;6.866;2024-03-29T03:25:09;7.90;76.20
53926;DHT22;39836;52.754;6.866;2024-03-29T03:27:35;7.70;76.10
53926;DHT22;39836;52.754;6.866;2024-03-29T03:30:01;7.90;76.10
53926;DHT22;39836;52.754;6.866;2024-03-29T03:32:30;7.90;76.10
53926;DHT22;39836;52.754;6.866;2024-03-29T03:34:55;8.00;76.10
53926;DHT22;39836;52.754;6.866;2024-03-29T03:37:21;8.00;76.00
53926;DHT22;39836;52.754;6.866;2024-03-29T03:39:47;8.00;75.70
53926;DHT22;39836;52.754;6.866;2024-03-29T03:42:13;8.00;75.90
53926;DHT22;39836;52.754;6.866;2024-03-29T03:44:39;8.00;76.00
53926;DHT22;39836;52.754;6.866;2024-03-29T03:47:05;8.00;75.90
53926;DHT22;39836;52.754;6.866;2024-03-29T03:49:33;8.00;75.90
53926;DHT22;39836;52.754;6.866;2024-03-29T03:51:59;8.00;76.00
53926;DHT22;39836;52.754;6.866;2024-03-29T03:54:39;8.10;75.90
53926;DHT22;39836;52.754;6.866;2024-03-29T03:57:05;8.10;75.90
53926;DHT22;39836;52.754;6.866;2024-03-29T03:59:36;8.10;75.90
53926;DHT22;39836;52.754;6.866;2024-03-29T04:02:03;8.20;75.90
53926;DHT22;39836;52.754;6.866;2024-03-29T04:04:42;8.10;75.90
53926;DHT22;39836;52.754;6.866;2024-03-29T04:09:56;8.10;76.00
53926;DHT22;39836;52.754;6.866;2024-03-29T04:12:25;8.00;76.30
53926;DHT22;39836;52.754;6.866;2024-03-29T04:15:15;7.90;76.40
53926;DHT22;39836;52.754;6.866;2024-03-29T04:17:47;7.80;76.50
53926;DHT22;39836;52.754;6.866;2024-03-29T04:20:22;7.70;76.70
53926;DHT22;39836;52.754;6.866;2024-03-29T04:22:48;7.70;76.70
53926;DHT22;39836;52.754;6.866;2024-03-29T04:25:26;7.80;76.40
53926;DHT22;39836;52.754;6.866;2024-03-29T04:27:52;7.90;76.40
53926;DHT22;39836;52.754;6.866;2024-03-29T04:30:21;8.00;76.30
53926;DHT22;39836;52.754;6.866;2024-03-29T04:32:50;8.10;76.20
53926;DHT22;39836;52.754;6.866;2024-03-29T04:35:32;8.10;76.30
53926;DHT22;39836;52.754;6.866;2024-03-29T04:38:00;8.10;76.30
53926;DHT22;39836;52.754;6.866;2024-03-29T04:40:32;8.10;76.30
53926;DHT22;39836;52.754;6.866;2024-03-29T04:43:04;8.10;76.30
53926;DHT22;39836;52.754;6.866;2024-03-29T04:45:36;8.10;76.20
53926;DHT22;39836;52.754;6.866;2024-03-29T04:48:02;8.10;76.20
53926;DHT22;39836;52.754;6.866;2024-03-29T04:50:28;8.20;76.20
53926;DHT22;39836;52.754;6.866;2024-03-29T04:53:00;8.20;76.10
53926;DHT22;39836;52.754;6.866;2024-03-29T04:55:26;8.30;76.10
53926;DHT22;39836;52.754;6.866;2024-03-29T04:57:52;8.30;76.00
53926;DHT22;39836;52.754;6.866;2024-03-29T05:00:21;8.40;75.90
53926;DHT22;39836;52.754;6.866;2024-03-29T05:02:55;8.40;76.00
53926;DHT22;39836;52.754;6.866;2024-03-29T05:05:27;8.40;76.00
53926;DHT22;39836;52.754;6.866;2024-03-29T05:07:53;8.40;75.90
53926;DHT22;39836;52.754;6.866;2024-03-29T05:10:32;8.50;75.90
53926;DHT22;39836;52.754;6.866;2024-03-29T05:13:04;8.50;75.90
53926;DHT22;39836;52.754;6.866;2024-03-29T05:15:39;8.50;75.90
53926;DHT22;39836;52.754;6.866;2024-03-29T05:18:10;8.50;76.00
53926;DHT22;39836;52.754;6.866;2024-03-29T05:20:42;8.50;75.90
53926;DHT22;39836;52.754;6.866;2024-03-29T05:23:15;8.60;75.90
53926;DHT22;39836;52.754;6.866;2024-03-29T05:25:44;8.60;75.90
53926;DHT22;39836;52.754;6.866;2024-03-29T05:28:11;8.60;76.00
53926;DHT22;39836;52.754;6.866;2024-03-29T05:30:37;8.70;76.00
53926;DHT22;39836;52.754;6.866;2024-03-29T05:33:17;8.70;76.10
53926;DHT22;39836;52.754;6.866;2024-03-29T05:35:43;8.60;76.20
53926;DHT22;39836;52.754;6.866;2024-03-29T05:38:10;8.60;76.30
53926;DHT22;39836;52.754;6.866;2024-03-29T05:40:36;8.60;76.30
53926;DHT22;39836;52.754;6.866;2024-03-29T05:43:09;8.70;76.40
53926;DHT22;39836;52.754;6.866;2024-03-29T05:45:35;8.70;76.50
53926;DHT22;39836;52.754;6.866;2024-03-29T05:48:01;8.70;76.60
53926;DHT22;39836;52.754;6.866;2024-03-29T05:50:30;8.70;76.60
53926;DHT22;39836;52.754;6.866;2024-03-29T05:52:59;8.50;76.70
53926;DHT22;39836;52.754;6.866;2024-03-29T05:55:38;8.70;76.90
53926;DHT22;39836;52.754;6.866;2024-03-29T05:58:04;8.70;76.90
53926;DHT22;39836;52.754;6.866;2024-03-29T06:00:40;8.60;77.10
53926;DHT22;39836;52.754;6.866;2024-03-29T06:03:09;8.60;77.30
53926;DHT22;39836;52.754;6.866;2024-03-29T06:05:38;8.60;77.20
53926;DHT22;39836;52.754;6.866;2024-03-29T06:08:10;8.70;77.20
53926;DHT22;39836;52.754;6.866;2024-03-29T06:10:36;8.60;77.50
53926;DHT22;39836;52.754;6.866;2024-03-29T06:13:03;8.50;77.80
53926;DHT22;39836;52.754;6.866;2024-03-29T06:15:56;8.50;78.00
53926;DHT22;39836;52.754;6.866;2024-03-29T06:21:35;8.40;78.50
53926;DHT22;39836;52.754;6.866;2024-03-29T06:24:09;8.40;78.70
53926;DHT22;39836;52.754;6.866;2024-03-29T06:26:49;8.30;78.90
53926;DHT22;39836;52.754;6.866;2024-03-29T06:29:27;8.30;79.00
